Flight Track Log - Related Links

Times and Time Zones

All times are in EST time to prevent confusion due to time zone crossing. See the N135FL flight status page for this flight to view local times or setup timezone preferences in your user account.


Time Position Orientation Groundspeed Altitude Reporting Facility
EST Latitude Longitude Course Direction KTS MPH feet Rate Location/Type
Sat 06:12:08 PM 29.6844 -82.2592 137° Southeast 116 133 500  Level Jacksonville Center
Sat 06:13:02 PM 29.6594 -82.2328 137° Southeast 157 181 1,100 686 Climbing Jacksonville Center
Sat 06:13:18 PM 29.6447 -82.2211 145° Southeast 164 189 1,300 1,263 Climbing Jacksonville Center
Sat 06:14:18 PM 29.6092 -82.2069 161° South 156 180 2,700 1,350 Climbing Jacksonville Center
Sat 06:15:18 PM 29.5714 -82.1906 159° South 156 180 4,000 1,200 Climbing Jacksonville Center
Sat 06:16:18 PM 29.5317 -82.1694 155° Southeast 156 180 5,100 1,100 Climbing Jacksonville Center
Sat 06:17:18 PM 29.4897 -82.1531 161° South 156 180 6,200 1,050 Climbing Jacksonville Center
Sat 06:18:18 PM 29.4439 -82.1367 163° South 162 186 7,200 1,050 Climbing Jacksonville Center
Sat 06:19:18 PM 29.4000 -82.1250 167° South 167 192 8,300 1,100 Climbing Jacksonville Center
Sat 06:20:18 PM 29.3561 -82.1111 165° South 167 192 9,400 1,100 Climbing Jacksonville Center
Sat 06:21:18 PM 29.3119 -82.0994 167° South 167 192 10,500 1,100 Climbing Jacksonville Center
Sat 06:22:18 PM 29.2661 -82.0856 165° South 167 192 11,600 1,100 Climbing Jacksonville Center
Sat 06:23:18 PM 29.2222 -82.0717 165° South 167 192 12,700 1,050 Climbing Jacksonville Center
Sat 06:24:18 PM 29.1739 -82.0556 164° South 167 192 13,700 1,000 Climbing Jacksonville Center
Sat 06:25:18 PM 29.1258 -82.0367 161° South 172 198 14,700 1,000 Climbing Jacksonville Center
Sat 06:26:18 PM 29.0778 -82.0206 164° South 172 198 15,700 1,000 Climbing Jacksonville Center
Sat 06:27:18 PM 29.0297 -81.9997 159° South 177 204 16,700 1,000 Climbing Jacksonville Center
Sat 06:28:18 PM 28.9794 -81.9789 160° South 187 215 17,700 850 Climbing Jacksonville Center
Sat 06:29:18 PM 28.9292 -81.9603 162° South 187 215 18,400 750 Climbing Jacksonville Center
Sat 06:30:18 PM 28.8769 -81.9394 161° South 187 215 19,200 750 Climbing Jacksonville Center
Sat 06:31:18 PM 28.8203 -81.9139 158° South 198 228 19,900 700 Climbing Jacksonville Center
Sat 06:32:18 PM 28.7617 -81.8908 161° South 209 241 20,600 550 Climbing Jacksonville Center
Sat 06:33:18 PM 28.7136 -81.8722 161° South 221 254 21,000 200 Climbing Jacksonville Center
Sat 06:34:18 PM 28.6361 -81.8447 163° South 235 270 21,000  Level Jacksonville Center
Sat 06:35:18 PM 28.5711 -81.8217 163° South 246 283 21,000  Level Jacksonville Center
Sat 06:36:18 PM 28.5022 -81.8011 165° South 246 283 21,000  Level Jacksonville Center
Sat 06:37:50 PM 28.4081 -81.7819 170° South 229 264 21,000  Level Miami Center
Sat 06:38:50 PM 28.3294 -81.7619 167° South 248 285 21,000  Level Miami Center
Sat 06:39:50 PM 28.2656 -81.7450 167° South 256 295 21,000  Level Miami Center
Sat 06:40:50 PM 28.1972 -81.7256 166° South 256 295 21,000 -200 Level Miami Center
Sat 06:41:50 PM 28.1289 -81.7086 168° South 256 295 20,600 -400 Descending Miami Center
Sat 06:42:50 PM 28.0608 -81.6917 168° South 256 295 20,200 -400 Descending Miami Center
Sat 06:43:50 PM 27.9925 -81.6744 167° South 256 295 19,800 -400 Descending Miami Center
Sat 06:44:50 PM 27.9222 -81.6575 168° South 256 295 19,400 -450 Descending Miami Center
Sat 06:45:50 PM 27.8539 -81.6406 168° South 256 295 18,900 -600 Descending Miami Center
Sat 06:46:50 PM 27.7875 -81.6236 167° South 256 295 18,200 -650 Descending Miami Center
Sat 06:47:50 PM 27.7317 -81.6119 170° South 245 282 17,600 -750 Descending Miami Center
Sat 06:48:50 PM 27.6611 -81.5997 171° South 240 276 16,700 -950 Descending Miami Center
Sat 06:49:50 PM 27.5989 -81.5831 167° South 235 270 15,700 -1,000 Descending Miami Center
Sat 06:50:50 PM 27.5347 -81.5686 169° South 235 270 14,700 -1,000 Descending Miami Center
Sat 06:51:50 PM 27.4747 -81.5544 168° South 235 270 13,700 -950 Descending Miami Center
Sat 06:52:50 PM 27.4125 -81.5403 169° South 235 270 12,800 -900 Descending Miami Center
Sat 06:53:50 PM 27.3547 -81.5239 166° South 235 270 11,900 -900 Descending Miami Center
Sat 06:54:50 PM 27.2944 -81.5097 168° South 235 270 11,000 -1,000 Descending Miami Center
Sat 06:55:50 PM 27.2386 -81.5006 172° South 218 251 9,900 -900 Descending Miami Center
Sat 06:56:50 PM 27.1825 -81.4889 170° South 218 251 9,200 -450 Descending Miami Center
Sat 06:57:50 PM 27.1308 -81.4775 169° South 208 239 9,000 -100 Descending Miami Center
Sat 06:58:50 PM 27.0811 -81.4639 166° South 197 227 9,000 50 Level Miami Center
Sat 06:59:50 PM 27.0336 -81.4481 163° South 185 213 9,100 50 Climbing Miami Center
Sat 07:00:50 PM 26.9839 -81.4344 166° South 180 207 9,100  Level Miami Center
Sat 07:01:50 PM 26.9364 -81.4208 166° South 185 213 9,100  Level Miami Center
Sat 07:02:50 PM 26.8867 -81.4072 166° South 180 207 9,100 -50 Level Miami Center
Sat 07:03:50 PM 26.8369 -81.3936 166° South 180 207 9,000 -100 Descending Miami Center
Sat 07:05:00 PM 26.7791 -81.4048 207° Southwest  Level FlightAware Approximate
Sat 07:12:00 PM 26.4351 -81.5991 204° Southwest  Level FlightAware Approximate
Sat 07:13:00 PM 26.3848 -81.6243 204° Southwest  Level FlightAware Approximate
Sat 07:14:00 PM 26.3375 -81.6552 214° Southwest  Level FlightAware Approximate
Sat 07:15:00 PM 26.2913 -81.6886 208° Southwest  Level FlightAware Approximate
Sat 07:16:00 PM 26.2428 -81.7177 208° Southwest  Level FlightAware Approximate
Sat 07:17:00 PM 26.1934 -81.7449 204° Southwest  Level FlightAware Approximate
Sat 07:18:00 PM 26.1500 -81.7667 204° Southwest  Level FlightAware Approximate
Sat 07:19:00 PM 26.1524 -81.7756 204° Southwest  Level Estimated
Sat 07:20:00 PM 26.1524 -81.7756 204° Southwest  Level Estimated
Sat 07:21:00 PM 26.1524 -81.7756 204° Southwest  Level Estimated
Sat 07:22:00 PM 26.1524 -81.7756 204° Southwest  Level Estimated
Sat 07:23:00 PM 26.1524 -81.7756 204° Southwest  Level Estimated
Sat 07:24:00 PM 26.1524 -81.7756 204° Southwest  Level Estimated
Sat 07:25:00 PM 26.1524 -81.7756 204° Southwest  Level Estimated
Sat 07:26:00 PM 26.1524 -81.7756 204° Southwest  Level Estimated
Sat 07:27:00 PM 26.1524 -81.7756 204° Southwest  Level Estimated
Sat 07:28:00 PM 26.1524 -81.7756 204° Southwest  Level Estimated
Sat 07:29:00 PM 26.1524 -81.7756 204° Southwest  Level Estimated
Sat 07:30:00 PM 26.1524 -81.7756 204° Southwest  Level Estimated
Sat 07:31:00 PM 26.1524 -81.7756 204° Southwest  Level Estimated

Login

Don't have an account? Register now (free) for customized features, flight alerts, and more!